Time;durP1;ratioP1;P1;durP2;ratioP2;P2;SDS_P1;SDS_P2;PMS_P1;PMS_P2;Temp;Humidity;BMP_temperature;BMP_pressure;BME280_temperature;BME280_humidity;BME280_pressure;Samples;Min_cycle;Max_cycle;Signal;HPM_P1;HPM_P2
2022/11/13 00:00:46;;;;;;;14.13;6.15;;;7.20;99.90;;;;;;5108293;27;20484;-74
2022/11/13 00:03:12;;;;;;;13.65;6.88;;;7.20;99.90;;;;;;5103949;27;20728;-70
2022/11/13 00:05:37;;;;;;;12.27;6.78;;;7.20;99.90;;;;;;5112535;27;20055;-73
2022/11/13 00:08:03;;;;;;;12.93;6.15;;;7.10;99.90;;;;;;5097343;28;20044;-71
2022/11/13 00:10:29;;;;;;;15.65;7.55;;;7.20;99.90;;;;;;5122914;27;20055;-70
2022/11/13 00:12:55;;;;;;;16.13;7.25;;;7.20;99.90;;;;;;5104359;27;20050;-72
2022/11/13 00:15:21;;;;;;;14.20;7.68;;;7.30;99.90;;;;;;5125616;27;20039;-69
2022/11/13 00:17:46;;;;;;;12.68;6.50;;;7.30;99.90;;;;;;5120175;27;20122;-75
2022/11/13 00:20:12;;;;;;;14.38;7.38;;;7.30;99.90;;;;;;5118664;27;20040;-69
2022/11/13 00:22:38;;;;;;;15.88;7.95;;;7.40;99.90;;;;;;5120078;27;20062;-74
2022/11/13 00:25:04;;;;;;;13.15;6.38;;;7.50;99.90;;;;;;5114092;27;20126;-72
2022/11/13 00:27:30;;;;;;;15.75;6.68;;;7.40;99.90;;;;;;5100374;27;20059;-70
2022/11/13 00:29:56;;;;;;;14.60;6.43;;;7.40;99.90;;;;;;5116508;27;20461;-69
2022/11/13 00:32:22;;;;;;;13.20;6.30;;;7.40;99.90;;;;;;5100647;28;20136;-69
2022/11/13 00:34:47;;;;;;;14.45;6.72;;;7.40;99.90;;;;;;5104802;28;20055;-74
2022/11/13 00:37:13;;;;;;;15.00;6.90;;;7.30;99.90;;;;;;5109512;28;20075;-70
2022/11/13 00:39:39;;;;;;;14.77;6.07;;;7.30;99.90;;;;;;5111084;28;20500;-72
2022/11/13 00:42:05;;;;;;;10.93;5.65;;;7.30;99.90;;;;;;5110462;28;20054;-70
2022/11/13 00:44:30;;;;;;;14.50;6.25;;;7.30;99.90;;;;;;5094278;27;20040;-70
2022/11/13 00:46:56;;;;;;;13.68;6.93;;;7.30;99.90;;;;;;5110071;28;20043;-70
2022/11/13 00:49:22;;;;;;;12.18;6.28;;;7.30;99.90;;;;;;5112242;27;20467;-72
2022/11/13 00:51:47;;;;;;;13.13;6.57;;;7.30;99.90;;;;;;5127513;27;20042;-70
2022/11/13 00:54:13;;;;;;;13.35;5.35;;;7.20;99.90;;;;;;5109613;28;20053;-70
2022/11/13 00:56:39;;;;;;;12.45;6.57;;;7.20;99.90;;;;;;5096233;28;20040;-69
2022/11/13 00:59:04;;;;;;;14.02;7.22;;;7.20;99.90;;;;;;5110013;28;20109;-70
2022/11/13 01:01:30;;;;;;;14.07;6.53;;;7.20;99.90;;;;;;5110097;28;20063;-70
2022/11/13 01:03:56;;;;;;;13.35;6.60;;;7.20;99.90;;;;;;5118695;27;20134;-75
2022/11/13 01:06:24;;;;;;;15.43;7.32;;;7.20;99.90;;;;;;5111028;27;20039;-69
2022/11/13 01:08:52;;;;;;;16.80;7.43;;;7.20;99.90;;;;;;5110714;28;20053;-70
2022/11/13 01:11:21;;;;;;;14.27;6.35;;;7.20;99.90;;;;;;5110440;28;20120;-71
2022/11/13 01:13:49;;;;;;;13.60;7.18;;;7.30;99.90;;;;;;5110718;28;20100;-70
2022/11/13 01:16:16;;;;;;;14.07;6.38;;;7.20;99.90;;;;;;5091985;28;20043;-69
2022/11/13 01:18:43;;;;;;;13.85;6.13;;;7.30;99.90;;;;;;5110906;28;20075;-71
2022/11/13 01:21:14;;;;;;;13.82;6.47;;;7.30;99.90;;;;;;5089740;28;20048;-70
2022/11/13 01:23:40;;;;;;;13.23;6.68;;;7.30;99.90;;;;;;5111202;28;20066;-71
2022/11/13 01:26:12;;;;;;;15.68;7.90;;;7.20;99.90;;;;;;5110641;28;20438;-71
2022/11/13 01:28:39;;;;;;;16.48;7.95;;;7.30;99.90;;;;;;5092758;28;20113;-69
2022/11/13 01:31:13;;;;;;;16.63;7.55;;;7.30;99.90;;;;;;5112037;28;20043;-73
2022/11/13 01:33:38;;;;;;;13.70;7.00;;;7.40;99.90;;;;;;5121168;27;20051;-70
2022/11/13 01:36:08;;;;;;;15.65;7.30;;;7.50;99.90;;;;;;5114373;27;20051;-71
2022/11/13 01:38:34;;;;;;;17.70;8.00;;;7.50;99.90;;;;;;5130449;27;20044;-70
2022/11/13 01:40:59;;;;;;;19.30;8.20;;;7.60;99.90;;;;;;5114123;28;20055;-72
2022/11/13 01:43:28;;;;;;;14.95;8.00;;;7.50;99.90;;;;;;5114710;28;20141;-72
2022/11/13 01:45:57;;;;;;;17.77;7.70;;;7.60;99.90;;;;;;5123399;27;20400;-75
2022/11/13 01:48:27;;;;;;;17.58;7.57;;;7.60;99.90;;;;;;5114132;28;20078;-70
2022/11/13 01:50:53;;;;;;;15.52;7.95;;;7.60;99.90;;;;;;5112413;28;20308;-69
2022/11/13 01:53:20;;;;;;;18.15;8.05;;;7.60;99.90;;;;;;5098547;27;20043;-72
2022/11/13 01:55:46;;;;;;;17.17;7.72;;;7.60;99.90;;;;;;5114560;27;20043;-71
2022/11/13 01:58:12;;;;;;;17.15;7.85;;;7.60;99.90;;;;;;5112648;28;20130;-71
2022/11/13 02:00:37;;;;;;;;;;;7.60;99.90;;;;;;5102952;27;20118;-69
2022/11/13 02:03:04;;;;;;;16.45;7.45;;;7.60;99.90;;;;;;5099064;27;20435;-73
2022/11/13 02:05:29;;;;;;;;;;;7.60;99.90;;;;;;5124012;27;20043;-73
2022/11/13 02:07:55;;;;;;;15.93;7.95;;;7.50;99.90;;;;;;5113512;28;20057;-70
2022/11/13 02:10:21;;;;;;;14.65;7.00;;;7.50;99.90;;;;;;5111435;27;20062;-69
2022/11/13 02:12:50;;;;;;;16.02;7.28;;;7.50;99.90;;;;;;5116637;27;20400;-69
2022/11/13 02:15:17;;;;;;;17.90;7.93;;;7.50;99.90;;;;;;5113151;28;20043;-71
2022/11/13 02:18:03;;;;;;;16.52;7.50;;;7.50;99.90;;;;;;5113799;28;20048;-70
2022/11/13 02:20:41;;;;;;;17.70;8.43;;;7.50;99.90;;;;;;5111920;28;20146;-73
2022/11/13 02:23:43;;;;;;;15.68;7.70;;;7.40;99.90;;;;;;5113459;28;20132;-69
2022/11/13 02:26:10;;;;;;;17.33;7.55;;;7.40;99.90;;;;;;5067381;28;20120;-71
2022/11/13 02:28:36;;;;;;;17.58;7.88;;;7.40;99.90;;;;;;5118964;27;20118;-71
2022/11/13 02:31:09;;;;;;;18.42;8.63;;;7.40;99.90;;;;;;5115241;27;20180;-75
2022/11/13 02:33:35;;;;;;;15.35;7.70;;;7.30;99.90;;;;;;5115787;27;20400;-70
2022/11/13 02:36:03;;;;;;;19.38;7.80;;;7.30;99.90;;;;;;5128853;27;20047;-74
2022/11/13 02:38:29;;;;;;;14.80;7.75;;;7.30;99.90;;;;;;5133084;27;20078;-70
2022/11/13 02:40:55;;;;;;;19.27;7.68;;;7.30;99.90;;;;;;5113388;28;20100;-71
2022/11/13 02:43:20;;;;;;;21.50;7.72;;;7.30;99.90;;;;;;5113183;28;20325;-69
2022/11/13 02:45:46;;;;;;;16.50;7.45;;;7.30;99.90;;;;;;5114590;27;20097;-69
2022/11/13 02:48:12;;;;;;;15.85;7.45;;;7.30;99.90;;;;;;5112811;28;20047;-70
2022/11/13 02:50:37;;;;;;;16.50;8.00;;;7.30;99.90;;;;;;5111146;27;20047;-73
2022/11/13 02:53:03;;;;;;;19.48;8.30;;;7.30;99.90;;;;;;5112726;28;20048;-75
2022/11/13 02:55:29;;;;;;;15.35;7.30;;;7.20;99.90;;;;;;5131008;27;20043;-69
2022/11/13 02:57:55;;;;;;;19.27;8.32;;;7.20;99.90;;;;;;5115213;27;20055;-70
2022/11/13 03:00:21;;;;;;;18.85;8.70;;;7.20;99.90;;;;;;5113879;27;20054;-70
2022/11/13 03:02:46;;;;;;;17.92;9.13;;;7.10;99.90;;;;;;5117690;27;20144;-70
2022/11/13 03:05:12;;;;;;;16.02;8.23;;;7.10;99.90;;;;;;5128347;27;20121;-70
2022/11/13 03:07:38;;;;;;;17.40;7.53;;;7.10;99.90;;;;;;5120597;27;20035;-71
2022/11/13 03:10:04;;;;;;;16.98;7.82;;;7.00;99.90;;;;;;5132502;27;20502;-74
2022/11/13 03:12:29;;;;;;;;;;;7.00;99.90;;;;;;5115301;27;20055;-72
2022/11/13 03:14:55;;;;;;;16.27;7.60;;;7.00;99.90;;;;;;5115027;27;19919;-71
2022/11/13 03:17:21;;;;;;;18.35;8.18;;;7.00;99.90;;;;;;5132446;27;20082;-69
2022/11/13 03:19:46;;;;;;;15.98;7.40;;;6.90;99.90;;;;;;5113865;27;20160;-70
2022/11/13 03:22:12;;;;;;;15.45;7.30;;;7.00;99.90;;;;;;5131634;27;20127;-69
2022/11/13 03:24:38;;;;;;;18.88;8.20;;;7.00;99.90;;;;;;5133276;27;20047;-69
2022/11/13 03:27:03;;;;;;;18.38;9.02;;;6.90;99.90;;;;;;5133007;27;20783;-74
2022/11/13 03:29:29;;;;;;;21.27;8.60;;;6.90;99.90;;;;;;5132644;27;20131;-70
2022/11/13 03:31:55;;;;;;;17.50;7.75;;;6.90;99.90;;;;;;5114263;27;20043;-72
2022/11/13 03:34:20;;;;;;;14.18;7.40;;;6.80;99.90;;;;;;5116753;27;20101;-71
2022/11/13 03:36:46;;;;;;;21.60;8.88;;;6.70;99.90;;;;;;5111359;28;20398;-71
2022/11/13 03:39:12;;;;;;;16.17;7.63;;;6.70;99.90;;;;;;5101045;27;20047;-69
2022/11/13 03:41:37;;;;;;;15.93;8.30;;;6.70;99.90;;;;;;5112352;28;20047;-69
2022/11/13 03:44:03;;;;;;;16.80;8.10;;;6.70;99.90;;;;;;5093835;28;20404;-72
2022/11/13 03:46:29;;;;;;;15.65;7.90;;;6.60;99.90;;;;;;5111188;28;20086;-70
2022/11/13 03:48:54;;;;;;;19.33;8.38;;;6.60;99.90;;;;;;5130349;27;20039;-73
2022/11/13 03:51:20;;;;;;;17.00;8.82;;;6.70;99.90;;;;;;5120599;27;20071;-70
2022/11/13 03:53:46;;;;;;;16.67;8.20;;;6.70;99.90;;;;;;5113786;27;20036;-69
2022/11/13 03:56:11;;;;;;;18.13;8.05;;;6.70;99.90;;;;;;5111427;28;20081;-75
2022/11/13 03:58:37;;;;;;;17.15;8.25;;;6.70;99.90;;;;;;5125789;27;20039;-71
2022/11/13 04:01:02;;;;;;;16.58;8.00;;;6.80;99.90;;;;;;5131905;27;20047;-69
2022/11/13 04:03:28;;;;;;;18.23;8.45;;;6.80;99.90;;;;;;5126196;27;20031;-69
2022/11/13 04:05:54;;;;;;;19.23;8.48;;;6.80;99.90;;;;;;5127537;27;20070;-71
2022/11/13 04:08:20;;;;;;;18.02;8.27;;;6.80;99.90;;;;;;5131675;27;20043;-70
2022/11/13 04:10:45;;;;;;;16.15;8.27;;;6.80;99.90;;;;;;5113699;27;20108;-71
2022/11/13 04:13:11;;;;;;;18.27;8.77;;;6.80;99.90;;;;;;5130639;27;20043;-75
2022/11/13 04:15:37;;;;;;;18.38;8.50;;;6.70;99.90;;;;;;5105432;28;20088;-70
2022/11/13 04:18:03;;;;;;;15.50;7.82;;;6.70;99.90;;;;;;5076741;28;20051;-70
2022/11/13 04:20:29;;;;;;;14.07;7.65;;;6.70;99.90;;;;;;5109750;28;20051;-73
2022/11/13 04:22:56;;;;;;;17.00;8.32;;;6.70;99.90;;;;;;5113182;27;20103;-71
2022/11/13 04:25:22;;;;;;;16.63;7.88;;;6.60;99.90;;;;;;5093365;28;20055;-70
2022/11/13 04:27:49;;;;;;;15.05;7.85;;;6.60;99.90;;;;;;5093605;28;20058;-69
2022/11/13 04:30:15;;;;;;;17.63;8.90;;;6.60;99.90;;;;;;5127478;27;20469;-70
2022/11/13 04:32:41;;;;;;;18.58;8.75;;;6.50;99.90;;;;;;5131736;27;20043;-70
2022/11/13 04:35:07;;;;;;;21.95;9.82;;;6.50;99.90;;;;;;5112487;27;20043;-72
2022/11/13 04:37:33;;;;;;;14.43;7.82;;;6.50;99.90;;;;;;5130111;27;20521;-70
2022/11/13 04:39:58;;;;;;;19.00;8.27;;;6.50;99.90;;;;;;5122987;27;20046;-75
2022/11/13 04:45:09;;;;;;;17.08;8.38;;;6.40;99.90;;;;;;5109367;28;20156;-69
2022/11/13 04:47:35;;;;;;;18.30;9.18;;;6.40;99.90;;;;;;5110429;28;20036;-70
2022/11/13 04:50:01;;;;;;;20.50;8.35;;;6.40;99.90;;;;;;5091950;28;20047;-69
2022/11/13 04:52:27;;;;;;;19.52;7.85;;;6.30;99.90;;;;;;5096516;28;20059;-69
2022/11/13 04:54:53;;;;;;;16.17;8.23;;;6.40;99.90;;;;;;5076301;28;20051;-70
2022/11/13 04:57:19;;;;;;;16.52;7.65;;;6.30;99.90;;;;;;5110414;28;20088;-70
2022/11/13 04:59:45;;;;;;;15.48;7.97;;;6.30;99.90;;;;;;5110707;28;20040;-70
2022/11/13 05:02:13;;;;;;;19.30;8.30;;;6.20;99.90;;;;;;5109641;28;20468;-71
2022/11/13 05:04:39;;;;;;;17.98;7.22;;;6.20;99.90;;;;;;5101286;28;20035;-72
2022/11/13 05:07:05;;;;;;;16.58;8.40;;;6.10;99.90;;;;;;5108715;27;20055;-71
2022/11/13 05:09:30;;;;;;;16.98;8.50;;;6.30;99.90;;;;;;5101733;28;20045;-71
2022/11/13 05:11:56;;;;;;;18.08;8.57;;;6.10;99.90;;;;;;5113754;28;20063;-71
2022/11/13 05:14:22;;;;;;;16.77;8.25;;;6.20;99.90;;;;;;5112364;28;20055;-70
2022/11/13 05:16:49;;;;;;;18.05;8.73;;;6.10;99.90;;;;;;5111436;28;20043;-70
2022/11/13 05:19:15;;;;;;;15.07;7.43;;;6.10;99.90;;;;;;5091318;28;20089;-75
2022/11/13 05:21:41;;;;;;;15.88;7.93;;;6.10;99.90;;;;;;5109116;27;20078;-69
2022/11/13 05:24:10;;;;;;;16.77;9.10;;;6.00;99.90;;;;;;5122315;28;20126;-74
2022/11/13 05:26:37;;;;;;;17.90;8.02;;;6.00;99.90;;;;;;5091391;28;20032;-69
2022/11/13 05:29:03;;;;;;;18.00;8.05;;;6.00;99.90;;;;;;5110103;28;20423;-71
2022/11/13 05:31:28;;;;;;;18.02;7.97;;;6.00;99.90;;;;;;5110037;28;20056;-69
2022/11/13 05:33:54;;;;;;;16.83;8.02;;;5.90;99.90;;;;;;5109470;28;20044;-74
2022/11/13 05:36:21;;;;;;;14.57;7.38;;;5.90;99.90;;;;;;5073586;28;20051;-75
2022/11/13 05:38:47;;;;;;;19.42;8.13;;;5.90;99.90;;;;;;5110381;28;20055;-71
2022/11/13 05:41:17;;;;;;;;;;;5.90;99.90;;;;;;5110868;28;20039;-70
2022/11/13 05:43:43;;;;;;;19.17;7.75;;;5.90;99.90;;;;;;5096320;28;20027;-70
2022/11/13 05:46:13;;;;;;;18.73;8.18;;;6.00;99.90;;;;;;5107126;28;20162;-70
2022/11/13 05:48:40;;;;;;;15.95;7.38;;;5.90;99.90;;;;;;5113046;28;20096;-72
2022/11/13 05:51:07;;;;;;;23.13;8.40;;;5.90;99.90;;;;;;5110800;28;20071;-72
2022/11/13 05:53:33;;;;;;;14.75;7.22;;;5.90;99.90;;;;;;5109456;28;20485;-70
2022/11/13 05:56:13;;;;;;;15.43;7.18;;;5.90;99.90;;;;;;5110375;28;20055;-70
2022/11/13 05:58:40;;;;;;;15.98;6.93;;;5.90;99.90;;;;;;5094395;28;20633;-70
2022/11/13 06:01:38;;;;;;;17.40;7.95;;;5.80;99.90;;;;;;5091651;28;20067;-69
2022/11/13 06:04:06;;;;;;;14.70;7.30;;;5.80;99.90;;;;;;5087832;28;20062;-70
2022/11/13 06:06:32;;;;;;;13.63;6.90;;;5.70;99.90;;;;;;5108031;28;20051;-69
2022/11/13 06:08:59;;;;;;;;;;;5.70;99.90;;;;;;5110069;28;21308;-69
2022/11/13 06:11:26;;;;;;;14.23;7.32;;;5.70;99.90;;;;;;5100014;28;19994;-70
2022/11/13 06:13:53;;;;;;;13.80;7.05;;;5.70;99.90;;;;;;5109954;28;20067;-70
2022/11/13 06:16:24;;;;;;;14.65;6.80;;;5.70;99.90;;;;;;5110821;28;20050;-75
2022/11/13 06:18:53;;;;;;;14.82;7.68;;;5.60;99.90;;;;;;5113734;28;20405;-75
2022/11/13 06:21:21;;;;;;;14.77;7.63;;;5.60;99.90;;;;;;5120599;27;20421;-70
2022/11/13 06:23:47;;;;;;;13.57;6.88;;;5.60;99.90;;;;;;5115881;27;20083;-69
2022/11/13 06:26:19;;;;;;;15.15;7.65;;;5.50;99.90;;;;;;5134437;27;20081;-71
2022/11/13 06:28:45;;;;;;;14.18;6.88;;;5.50;99.90;;;;;;5127780;27;20044;-70
2022/11/13 06:31:12;;;;;;;;;;;5.50;99.90;;;;;;5104629;27;20047;-69
2022/11/13 06:33:39;;;;;;;12.40;6.63;;;5.50;99.90;;;;;;5116112;27;19926;-70
2022/11/13 06:36:07;;;;;;;11.98;6.43;;;5.50;99.90;;;;;;5112542;27;20107;-69
2022/11/13 06:38:36;;;;;;;16.20;7.13;;;5.40;99.90;;;;;;5095054;28;20539;-70
2022/11/13 06:41:03;;;;;;;14.65;7.35;;;5.40;99.90;;;;;;5095587;28;20488;-70
2022/11/13 06:43:29;;;;;;;14.85;7.38;;;5.40;99.90;;;;;;5094828;28;20051;-70
2022/11/13 06:45:56;;;;;;;15.10;7.32;;;5.40;99.90;;;;;;5094732;28;20051;-70
2022/11/13 06:48:22;;;;;;;20.30;8.43;;;5.50;99.90;;;;;;5113428;28;20079;-73
2022/11/13 06:50:49;;;;;;;15.48;7.60;;;5.60;99.90;;;;;;5117511;27;20054;-70
2022/11/13 06:53:15;;;;;;;18.40;7.57;;;5.50;99.90;;;;;;5112912;27;20042;-71
2022/11/13 06:55:43;;;;;;;13.82;7.00;;;5.60;99.90;;;;;;5114294;27;20070;-70
2022/11/13 06:58:09;;;;;;;14.18;7.25;;;5.70;99.90;;;;;;5113289;28;20043;-72
2022/11/13 07:00:34;;;;;;;16.27;7.50;;;5.70;99.90;;;;;;5114198;27;20491;-70
2022/11/13 07:03:00;;;;;;;16.95;8.02;;;5.70;99.90;;;;;;5112925;27;20388;-70
2022/11/13 07:05:26;;;;;;;13.82;6.97;;;5.70;99.90;;;;;;5111194;28;20097;-74
2022/11/13 07:07:52;;;;;;;15.30;6.88;;;5.70;99.90;;;;;;5093960;28;20054;-70
2022/11/13 07:10:17;;;;;;;12.18;6.63;;;5.70;99.90;;;;;;5087043;28;20550;-70
2022/11/13 07:12:43;;;;;;;14.95;7.43;;;5.70;99.90;;;;;;5112288;28;20055;-70
2022/11/13 07:15:09;;;;;;;15.57;7.78;;;5.70;99.90;;;;;;5112546;28;20048;-71
2022/11/13 07:17:35;;;;;;;15.32;7.00;;;5.80;99.90;;;;;;5093826;28;20051;-70
2022/11/13 07:20:00;;;;;;;15.32;7.82;;;5.70;99.90;;;;;;5111686;28;20043;-70
2022/11/13 07:22:29;;;;;;;16.58;7.28;;;5.80;99.90;;;;;;5109859;27;20397;-75
2022/11/13 07:24:55;;;;;;;20.60;7.65;;;5.70;99.90;;;;;;5130751;27;20069;-73
2022/11/13 07:27:20;;;;;;;16.45;7.40;;;5.80;99.90;;;;;;5133043;27;20488;-70
2022/11/13 07:29:46;;;;;;;16.58;7.70;;;5.80;99.90;;;;;;5096773;27;20126;-69
2022/11/13 07:32:12;;;;;;;14.32;7.28;;;5.80;99.90;;;;;;5131144;27;20047;-69
2022/11/13 07:34:37;;;;;;;15.52;8.00;;;5.80;99.90;;;;;;5108661;28;20039;-70
2022/11/13 07:37:05;;;;;;;16.05;7.72;;;5.90;99.90;;;;;;5095064;27;20512;-69
2022/11/13 07:39:31;;;;;;;13.90;7.30;;;5.90;99.90;;;;;;5085550;28;20058;-75
2022/11/13 07:41:57;;;;;;;14.43;7.05;;;5.90;99.90;;;;;;5122402;27;20054;-70
2022/11/13 07:44:23;;;;;;;17.40;7.75;;;5.90;99.90;;;;;;5097292;28;20047;-70
2022/11/13 07:46:49;;;;;;;14.48;7.28;;;6.00;99.90;;;;;;5128992;27;20484;-70
2022/11/13 07:49:14;;;;;;;15.98;7.25;;;6.00;99.90;;;;;;5127449;27;20073;-72
2022/11/13 07:51:40;;;;;;;12.80;6.47;;;6.00;99.90;;;;;;5092495;28;20130;-70
2022/11/13 07:54:06;;;;;;;13.85;6.75;;;6.10;99.90;;;;;;5116365;27;20143;-70
2022/11/13 07:56:31;;;;;;;11.40;5.95;;;6.10;99.90;;;;;;5110135;28;20457;-75
2022/11/13 07:58:57;;;;;;;13.75;6.78;;;6.10;99.90;;;;;;5126490;27;20131;-69
2022/11/13 08:01:23;;;;;;;16.27;7.25;;;6.10;99.90;;;;;;5132253;27;20051;-70
2022/11/13 08:03:48;;;;;;;13.32;6.30;;;6.10;99.90;;;;;;5130040;27;20075;-73
2022/11/13 08:06:14;;;;;;;13.80;6.57;;;6.20;99.90;;;;;;5120006;27;20046;-70
2022/11/13 08:08:40;;;;;;;14.00;6.53;;;6.30;99.90;;;;;;5105104;28;20043;-63
2022/11/13 08:11:08;;;;;;;13.40;7.00;;;6.30;99.90;;;;;;5111802;28;20044;-64
2022/11/13 08:13:35;;;;;;;14.50;6.28;;;6.40;99.90;;;;;;5110875;28;20504;-69
2022/11/13 08:16:01;;;;;;;16.67;6.97;;;6.60;99.90;;;;;;5111205;28;20043;-72
2022/11/13 08:18:28;;;;;;;11.05;5.55;;;6.70;99.90;;;;;;5076884;28;20043;-72
2022/11/13 08:20:54;;;;;;;15.25;6.68;;;6.90;99.90;;;;;;5091121;28;20398;-68
2022/11/13 08:23:20;;;;;;;12.25;6.30;;;6.90;99.90;;;;;;5111828;28;20550;-67
2022/11/13 08:25:46;;;;;;;12.35;6.55;;;7.10;99.90;;;;;;5111208;27;20395;-69
2022/11/13 08:28:12;;;;;;;12.95;6.25;;;7.20;99.90;;;;;;5115401;27;20100;-72
2022/11/13 08:30:38;;;;;;;15.93;6.32;;;7.30;99.90;;;;;;5106443;27;20512;-72
2022/11/13 08:33:03;;;;;;;13.32;6.47;;;7.30;99.90;;;;;;5111941;28;20442;-73
2022/11/13 08:35:29;;;;;;;13.88;6.30;;;7.40;99.90;;;;;;5094172;28;20063;-74
2022/11/13 08:38:05;;;;;;;12.40;5.68;;;7.50;99.90;;;;;;5118602;27;20046;-74
2022/11/13 08:40:31;;;;;;;14.70;6.35;;;7.50;99.90;;;;;;5118188;27;20042;-76
2022/11/13 08:43:01;;;;;;;11.25;6.10;;;7.60;99.90;;;;;;5131182;27;20130;-73
2022/11/13 08:45:28;;;;;;;13.27;6.22;;;7.60;99.90;;;;;;5127432;27;20420;-73
2022/11/13 08:47:53;;;;;;;12.20;6.13;;;7.70;99.90;;;;;;5113008;27;20517;-67
2022/11/13 08:50:19;;;;;;;14.45;6.43;;;7.80;99.90;;;;;;5121136;27;20047;-65
2022/11/13 08:52:45;;;;;;;10.65;5.93;;;7.90;99.90;;;;;;5116847;27;20057;-65
2022/11/13 08:55:11;;;;;;;10.80;5.47;;;8.00;99.90;;;;;;5113876;27;20104;-65
2022/11/13 08:57:37;;;;;;;11.07;5.55;;;8.10;99.90;;;;;;5116031;27;20673;-76
2022/11/13 09:00:04;;;;;;;9.75;5.40;;;8.20;99.90;;;;;;5112632;28;20051;-72
2022/11/13 09:02:30;;;;;;;9.60;5.28;;;8.30;99.90;;;;;;5098921;27;20050;-70
2022/11/13 09:04:56;;;;;;;;;;;8.50;99.90;;;;;;5100205;28;20197;-72
2022/11/13 09:07:22;;;;;;;16.70;6.15;;;8.50;99.90;;;;;;5121627;27;20449;-71
2022/11/13 09:09:47;;;;;;;10.82;5.78;;;8.60;99.90;;;;;;5112273;27;20047;-71
2022/11/13 09:12:14;;;;;;;11.55;5.80;;;8.70;99.90;;;;;;5115542;28;20048;-71
2022/11/13 09:14:40;;;;;;;9.73;5.45;;;8.80;99.90;;;;;;5092960;28;20119;-76
2022/11/13 09:17:05;;;;;;;14.75;5.45;;;8.80;99.90;;;;;;5114947;28;20043;-68
2022/11/13 09:19:31;;;;;;;13.07;5.13;;;8.80;99.90;;;;;;5112294;28;20047;-68
2022/11/13 09:21:57;;;;;;;10.40;5.50;;;8.80;99.90;;;;;;5095802;28;20529;-73
2022/11/13 09:24:22;;;;;;;9.13;4.82;;;9.00;99.90;;;;;;5113060;28;20055;-72
2022/11/13 09:26:48;;;;;;;9.88;5.72;;;9.10;99.90;;;;;;5076387;28;20032;-69
2022/11/13 09:29:14;;;;;;;9.32;5.13;;;9.10;99.90;;;;;;5094272;28;20085;-71
2022/11/13 09:31:40;;;;;;;15.15;5.65;;;9.30;99.90;;;;;;5108673;28;20665;-73
2022/11/13 09:34:06;;;;;;;10.95;5.30;;;9.30;99.90;;;;;;5102362;28;20181;-69
2022/11/13 09:36:32;;;;;;;10.02;5.40;;;9.40;99.90;;;;;;5083602;28;20047;-73
2022/11/13 09:38:59;;;;;;;11.65;5.70;;;9.40;99.90;;;;;;5097825;28;20043;-71
2022/11/13 09:41:33;;;;;;;10.52;5.75;;;9.40;99.90;;;;;;5092899;28;20086;-69
2022/11/13 09:44:03;;;;;;;10.82;5.35;;;9.50;99.90;;;;;;5099446;28;20087;-73
2022/11/13 09:47:06;;;;;;;9.25;5.10;;;9.50;99.90;;;;;;5111612;28;20119;-69
2022/11/13 09:49:38;;;;;;;14.25;5.95;;;9.50;99.90;;;;;;5095598;28;20673;-72
2022/11/13 09:52:14;;;;;;;12.07;5.40;;;9.60;99.90;;;;;;5117351;27;20040;-70
2022/11/13 09:54:40;;;;;;;11.37;5.57;;;9.60;99.90;;;;;;5097361;27;20488;-73
2022/11/13 09:57:12;;;;;;;;;;;9.60;99.90;;;;;;5100572;28;20065;-70
2022/11/13 09:59:38;;;;;;;9.80;4.38;;;9.70;99.90;;;;;;5115268;27;20707;-74
2022/11/13 10:02:06;;;;;;;11.13;5.18;;;9.80;99.90;;;;;;5124691;27;20043;-71
2022/11/13 10:05:20;;;;;;;9.05;4.60;;;10.00;99.90;;;;;;5118419;27;20431;-69
2022/11/13 10:08:12;;;;;;;12.07;4.97;;;10.20;99.90;;;;;;5099506;27;20054;-71
2022/11/13 10:10:48;;;;;;;10.55;5.35;;;10.40;99.90;;;;;;5103761;28;20055;-70
2022/11/13 10:13:20;;;;;;;;;;;10.60;99.90;;;;;;5116992;27;20048;-68
2022/11/13 10:15:49;;;;;;;10.32;4.97;;;10.70;99.90;;;;;;5096627;28;20014;-72
2022/11/13 10:18:29;;;;;;;8.77;5.15;;;10.90;99.90;;;;;;5082076;27;20468;-68
2022/11/13 10:21:12;;;;;;;11.95;5.38;;;11.10;99.90;;;;;;5112571;27;20044;-71
2022/11/13 10:23:37;;;;;;;9.30;4.72;;;11.30;99.90;;;;;;5123723;27;20092;-70
2022/11/13 10:26:14;;;;;;;7.40;4.55;;;11.60;99.90;;;;;;5116790;27;20047;-70
2022/11/13 10:28:40;;;;;;;;;;;11.90;99.90;;;;;;5118872;27;20062;-73
2022/11/13 10:31:09;;;;;;;9.75;4.82;;;12.00;99.90;;;;;;5116311;27;19919;-72
2022/11/13 10:33:35;;;;;;;9.57;4.93;;;12.30;99.90;;;;;;5100583;27;20048;-69
2022/11/13 10:36:20;;;;;;;8.98;4.50;;;12.50;99.90;;;;;;5116706;27;20058;-69
2022/11/13 10:39:03;;;;;;;7.93;4.00;;;12.80;99.90;;;;;;5100057;27;20451;-76
2022/11/13 10:41:29;;;;;;;8.07;4.07;;;13.20;99.90;;;;;;5096785;27;21075;-72
2022/11/13 10:44:05;;;;;;;6.80;3.80;;;14.10;99.90;;;;;;5111240;27;20071;-69
2022/11/13 10:46:31;;;;;;;10.05;4.75;;;15.00;99.90;;;;;;5099211;27;20138;-69
2022/11/13 10:49:09;;;;;;;7.75;4.07;;;15.60;99.90;;;;;;5112563;27;20050;-71
2022/11/13 10:51:35;;;;;;;7.80;4.55;;;16.20;99.90;;;;;;5106214;27;20043;-70
2022/11/13 10:54:24;;;;;;;6.28;3.47;;;16.60;99.90;;;;;;5112812;27;20099;-69
2022/11/13 10:57:15;;;;;;;7.38;3.67;;;17.00;99.90;;;;;;5111492;27;20044;-74
2022/11/13 10:59:43;;;;;;;7.38;3.70;;;17.50;99.90;;;;;;5116457;27;20796;-70
2022/11/13 11:02:20;;;;;;;6.97;3.35;;;17.90;99.90;;;;;;5096811;27;20055;-73
2022/11/13 11:04:46;;;;;;;6.10;3.70;;;18.20;99.90;;;;;;5113738;27;20103;-75
2022/11/13 11:07:19;;;;;;;;;;;18.60;99.90;;;;;;5098759;27;20051;-67
2022/11/13 11:09:47;;;;;;;6.70;3.50;;;18.90;99.90;;;;;;5116523;27;19963;-74
2022/11/13 11:12:17;;;;;;;7.68;3.63;;;19.20;99.90;;;;;;5118543;27;20051;-67
2022/11/13 11:14:56;;;;;;;5.93;3.22;;;19.60;99.90;;;;;;5093839;28;20453;-71
2022/11/13 11:17:45;;;;;;;5.30;3.03;;;19.90;99.90;;;;;;5113909;27;20388;-68
2022/11/13 11:20:23;;;;;;;6.80;3.55;;;20.20;99.90;;;;;;5109672;27;20538;-69
2022/11/13 11:22:56;;;;;;;5.05;3.28;;;20.70;99.90;;;;;;5113527;27;20099;-73
2022/11/13 11:25:34;;;;;;;8.13;3.33;;;21.00;99.90;;;;;;5113655;27;20116;-68
2022/11/13 11:28:10;;;;;;;5.03;2.97;;;21.30;93.90;;;;;;5112607;27;20441;-71
2022/11/13 11:30:57;;;;;;;6.28;3.08;;;21.40;95.30;;;;;;5111015;27;20404;-69
2022/11/13 11:33:32;;;;;;;6.35;2.97;;;21.50;87.50;;;;;;5102387;28;20048;-68
2022/11/13 11:36:28;;;;;;;7.38;3.13;;;21.70;90.60;;;;;;5112194;27;20087;-67
2022/11/13 11:39:23;;;;;;;6.28;3.17;;;21.90;84.60;;;;;;5100430;28;20128;-68
2022/11/13 11:42:24;;;;;;;5.97;2.90;;;22.10;79.60;;;;;;5120724;27;20042;-74
2022/11/13 11:45:03;;;;;;;5.55;2.53;;;22.30;83.60;;;;;;5054525;28;20477;-75
2022/11/13 11:47:30;;;;;;;5.75;3.40;;;22.50;75.20;;;;;;5110885;27;20047;-68
2022/11/13 11:49:55;;;;;;;4.13;2.58;;;22.60;77.40;;;;;;5109421;27;20047;-67
2022/11/13 11:52:39;;;;;;;6.05;2.80;;;22.60;74.50;;;;;;5110777;27;20052;-68
2022/11/13 11:55:39;;;;;;;5.07;2.78;;;22.90;71.80;;;;;;5118187;27;20052;-67
2022/11/13 11:58:23;;;;;;;5.55;3.00;;;23.50;65.30;;;;;;5120531;27;20044;-72
2022/11/13 12:00:52;;;;;;;5.43;2.95;;;24.00;69.20;;;;;;5117698;27;20046;-74
2022/11/13 12:03:39;;;;;;;8.05;3.03;;;24.20;66.60;;;;;;5097309;28;20047;-68
2022/11/13 12:06:17;;;;;;;4.57;2.67;;;24.50;60.90;;;;;;5118619;27;20089;-71
2022/11/13 12:09:02;;;;;;;4.00;2.70;;;24.50;64.50;;;;;;5099508;27;20051;-68
2022/11/13 12:11:34;;;;;;;5.70;2.88;;;24.70;58.40;;;;;;5110265;27;20063;-72
2022/11/13 12:14:35;;;;;;;4.50;2.70;;;25.00;60.70;;;;;;5109294;28;20047;-68
2022/11/13 12:17:18;;;;;;;6.10;2.90;;;25.20;54.20;;;;;;5112588;27;20051;-69
2022/11/13 12:20:19;;;;;;;4.15;2.40;;;25.60;59.30;;;;;;5130700;27;20039;-69
2022/11/13 12:23:05;;;;;;;4.15;2.70;;;25.90;55.00;;;;;;5122271;27;20050;-69
2022/11/13 12:25:33;;;;;;;;;;;26.20;53.90;;;;;;5131812;27;20043;-68
2022/11/13 12:28:19;;;;;;;4.60;2.47;;;26.60;54.10;;;;;;5122628;27;20354;-68
2022/11/13 12:31:17;;;;;;;4.80;2.30;;;26.90;55.40;;;;;;5092017;28;20050;-68
2022/11/13 12:34:05;;;;;;;6.18;2.35;;;26.90;52.70;;;;;;5110940;28;20369;-69
2022/11/13 12:36:32;;;;;;;4.60;2.20;;;27.00;55.50;;;;;;5108838;28;20062;-69
2022/11/13 12:39:18;;;;;;;4.32;2.30;;;27.40;54.70;;;;;;5109973;28;20035;-69
2022/11/13 12:41:53;;;;;;;3.80;2.08;;;27.80;51.20;;;;;;5094565;27;20047;-72
2022/11/13 12:44:23;;;;;;;3.05;2.03;;;28.10;51.50;;;;;;5126350;27;20050;-69
2022/11/13 12:46:50;;;;;;;3.22;2.20;;;28.10;50.40;;;;;;5106903;28;20106;-71
2022/11/13 12:49:22;;;;;;;3.67;2.10;;;28.10;50.30;;;;;;5090644;28;20052;-68
2022/11/13 12:51:59;;;;;;;3.10;1.90;;;28.20;48.40;;;;;;5109502;28;20134;-69
2022/11/13 12:54:27;;;;;;;7.32;2.17;;;28.30;48.20;;;;;;5107337;27;20051;-69
2022/11/13 12:57:23;;;;;;;4.40;2.20;;;28.20;48.60;;;;;;5130554;27;20504;-73
2022/11/13 12:59:54;;;;;;;4.00;2.30;;;28.20;46.70;;;;;;5109861;27;20048;-71
2022/11/13 13:02:32;;;;;;;3.30;2.03;;;28.30;48.50;;;;;;5109889;28;20039;-70
2022/11/13 13:05:13;;;;;;;3.85;2.30;;;28.50;46.50;;;;;;5091210;28;20477;-74